Uithoorn, Netherlands
Current Conditions -  °F | °C
As of 3:55 AM on Wednesday 26 Nov 2014 (Local Time) from EHAM Reporting Station
Clear Clear  
Wind Chill: 32°   Ceiling: Unl
Heat Index: 39°   Visibility: 4mi
Dew Point: 37°   Wind: 12mph
Humidity: 93%   Direction: 90°E
Pressure: 30.03"   Gusts: NA
Location:  52.24°N, 4.83°E
Report Text: EHAM 260255Z 09010KT 7000 NSC 04/03 Q1017 NOSIG
Loading
Personal Weather Stations






























Interactive Weather Map New forecast layout! Learn more

10-Day Weather Forecast

Advertisements
Track Severe Weather on mobile